Rechercher aéroport 
image banner adimage banner adimage banner ad
image banner ad

8PS5 - Hmc Hanger

Situé à Hershey, United States

ICAO - 8PS5, IATA -

Données fournies par Airmate  

Information générale

Coordonnées: N40°15'43" W76°41'5"
Élévation : 421 feet MSL.
Variation magnétique : -10° East
Voir autres Aéroports à Pennsylvania

Données opérationnelles

Special qualification required
Heure actuelle UTC:
Heure actuelle locale:
Météo à : KMDT - Harrisburg Intl ( 10 km )
METAR: KMDT 132030Z 22005KT 10SM OVC033 25/18 A2986 RMK AO2 T02500183
TAF: KMDT 131739Z 1318/1418 23006KT P6SM BKN025 OVC040 FM131930 17005KT P6SM BKN050 FM132100 16005KT P6SM -SHRA VCTS OVC035CB FM140600 13004KT 5SM BR OVC010 FM141300 27006KT P6SM BKN050
Voir NOTAMs / SUP AIP / TFR affectant cet aéroport [VIEW]
Fréquences de communication: [VIEW]

Pistes:

Coordonnées de l'aéroport

Adresse: Hershey United States

Vue satellite de 8PS5